Time;durP1;ratioP1;P1;durP2;ratioP2;P2;SDS_P1;SDS_P2;PMS_P1;PMS_P2;Temp;Humidity;BMP_temperature;BMP_pressure;BME280_temperature;BME280_humidity;BME280_pressure;Samples;Min_cycle;Max_cycle;Signal;HPM_P1;HPM_P2
2023/11/05 00:02:15;;;;;;;1.05;0.30;;;15.50;70.80;;;;;;2332014;58;21582;-64
2023/11/05 00:04:41;;;;;;;6.12;0.75;;;15.60;70.80;;;;;;2330862;57;20978;-63
2023/11/05 00:07:08;;;;;;;1.00;0.30;;;15.60;70.80;;;;;;2130466;59;20997;-64
2023/11/05 00:09:34;;;;;;;2.00;0.40;;;15.60;70.80;;;;;;2129921;59;20965;-64
2023/11/05 00:12:01;;;;;;;3.03;0.73;;;15.60;70.80;;;;;;2129594;58;21032;-64
2023/11/05 00:14:27;;;;;;;0.98;0.30;;;15.60;70.70;;;;;;2331775;58;21062;-63
2023/11/05 00:16:54;;;;;;;1.20;0.30;;;15.60;70.70;;;;;;2331569;58;21010;-64
2023/11/05 00:19:20;;;;;;;1.35;0.30;;;15.60;70.70;;;;;;2333268;58;21112;-64
2023/11/05 00:21:46;;;;;;;0.77;0.35;;;15.60;70.70;;;;;;2139529;59;21584;-65
2023/11/05 00:24:17;;;;;;;1.62;0.43;;;15.60;70.70;;;;;;2303428;58;21029;-64
2023/11/05 00:26:44;;;;;;;1.00;0.30;;;15.60;70.80;;;;;;2130306;58;20974;-64
2023/11/05 00:29:10;;;;;;;1.20;0.30;;;15.70;70.80;;;;;;2130436;59;21354;-65
2023/11/05 00:31:38;;;;;;;2.05;0.30;;;15.70;70.80;;;;;;2331591;58;21118;-63
2023/11/05 00:34:04;;;;;;;2.37;0.40;;;15.70;70.80;;;;;;2331951;58;21423;-64
2023/11/05 00:36:31;;;;;;;2.35;0.30;;;15.80;70.90;;;;;;2129904;59;21085;-63
2023/11/05 00:38:57;;;;;;;2.92;0.40;;;15.70;70.70;;;;;;2331316;58;21436;-63
2023/11/05 00:41:23;;;;;;;2.67;0.50;;;15.80;70.80;;;;;;2130388;58;21761;-64
2023/11/05 00:43:50;;;;;;;2.87;0.40;;;15.80;70.80;;;;;;2129821;59;21105;-64
2023/11/05 00:46:17;;;;;;;2.17;0.47;;;15.80;70.80;;;;;;2332016;58;20986;-64
2023/11/05 00:48:47;;;;;;;1.35;0.40;;;15.80;70.80;;;;;;2129597;59;21039;-64
2023/11/05 00:51:14;;;;;;;2.62;0.50;;;15.90;70.90;;;;;;2130119;59;21069;-63
2023/11/05 00:53:40;;;;;;;1.87;0.35;;;15.90;70.90;;;;;;2129929;59;21069;-64
2023/11/05 00:56:08;;;;;;;2.70;0.60;;;15.90;70.80;;;;;;2128938;59;21893;-64
2023/11/05 00:58:34;;;;;;;1.60;0.40;;;15.90;70.70;;;;;;2128949;59;21116;-64
2023/11/05 01:01:01;;;;;;;1.27;0.30;;;16.00;70.80;;;;;;2129353;59;21089;-64
2023/11/05 01:03:27;;;;;;;2.05;0.50;;;15.90;70.60;;;;;;2130289;58;21042;-65
2023/11/05 01:05:53;;;;;;;3.53;0.70;;;16.00;70.70;;;;;;2129585;59;21073;-64
2023/11/05 01:08:20;;;;;;;3.05;0.50;;;16.00;70.60;;;;;;2331308;58;21459;-64
2023/11/05 01:10:50;;;;;;;3.10;0.47;;;16.00;70.50;;;;;;2331243;58;20985;-64
2023/11/05 01:13:19;;;;;;;2.55;0.50;;;16.10;70.60;;;;;;2130380;59;21018;-64
2023/11/05 01:15:45;;;;;;;2.58;0.70;;;16.10;70.20;;;;;;2129774;59;21489;-64
2023/11/05 01:18:12;;;;;;;3.40;0.80;;;16.10;70.50;;;;;;2331860;58;21726;-65
2023/11/05 01:20:38;;;;;;;2.37;0.60;;;16.20;70.50;;;;;;2331672;58;21499;-64
2023/11/05 01:23:05;;;;;;;3.22;0.45;;;16.20;70.50;;;;;;2130123;59;21054;-64
2023/11/05 01:25:31;;;;;;;3.55;0.65;;;16.20;70.50;;;;;;2331959;58;21518;-64
2023/11/05 01:27:58;;;;;;;1.62;0.43;;;16.30;70.60;;;;;;2331537;58;21074;-64
2023/11/05 01:30:27;;;;;;;3.08;0.40;;;16.30;70.50;;;;;;2338031;58;20953;-64
2023/11/05 01:32:54;;;;;;;4.07;0.60;;;16.30;70.10;;;;;;2130731;59;20958;-64
2023/11/05 01:35:20;;;;;;;2.92;0.60;;;16.30;70.20;;;;;;2130067;58;20985;-64
2023/11/05 01:37:46;;;;;;;2.97;0.70;;;16.40;70.20;;;;;;2128900;59;20977;-64
2023/11/05 01:40:13;;;;;;;3.60;0.55;;;16.40;70.20;;;;;;2130390;59;21001;-63
2023/11/05 01:42:39;;;;;;;3.17;0.62;;;16.40;70.10;;;;;;2129945;59;20990;-64
2023/11/05 01:45:07;;;;;;;3.12;0.47;;;16.50;70.10;;;;;;2267803;58;2613191;-64
2023/11/05 01:47:36;;;;;;;3.78;0.60;;;16.50;70.00;;;;;;2130070;59;21054;-64
2023/11/05 01:50:03;;;;;;;3.72;0.60;;;16.60;70.00;;;;;;2127651;58;21003;-64
2023/11/05 01:52:31;;;;;;;2.35;0.50;;;16.50;69.90;;;;;;2129818;59;21054;-65
2023/11/05 01:54:57;;;;;;;3.30;0.60;;;16.60;69.90;;;;;;2118645;60;21002;-64
2023/11/05 01:57:26;;;;;;;2.58;0.50;;;16.60;69.80;;;;;;2331385;58;21038;-64
2023/11/05 01:59:52;;;;;;;3.33;0.60;;;16.60;69.70;;;;;;2129200;59;22189;-64
2023/11/05 02:02:18;;;;;;;2.12;0.50;;;16.60;69.60;;;;;;2331487;58;21030;-64
2023/11/05 02:04:45;;;;;;;2.80;0.50;;;16.60;69.70;;;;;;2129405;59;21049;-65
2023/11/05 02:07:11;;;;;;;2.60;0.60;;;16.70;69.80;;;;;;2331330;58;21696;-65
2023/11/05 02:09:39;;;;;;;2.60;0.73;;;16.70;69.60;;;;;;2134103;59;21018;-63
2023/11/05 02:12:05;;;;;;;2.75;0.77;;;16.70;69.60;;;;;;2331024;58;20990;-64
2023/11/05 02:14:33;;;;;;;2.75;0.60;;;16.70;69.60;;;;;;2129975;59;20970;-64
2023/11/05 02:16:59;;;;;;;1.80;0.43;;;16.80;70.30;;;;;;2137781;58;21025;-63
2023/11/05 02:19:26;;;;;;;4.55;0.50;;;16.80;69.60;;;;;;2331008;58;21001;-63
2023/11/05 02:21:54;;;;;;;4.57;0.80;;;16.80;69.60;;;;;;2129661;59;21013;-64
2023/11/05 02:24:24;;;;;;;3.03;0.80;;;16.80;69.60;;;;;;2130601;59;21423;-64
2023/11/05 02:26:57;;;;;;;2.53;0.60;;;16.80;69.50;;;;;;2129860;59;21497;-63
2023/11/05 02:29:24;;;;;;;2.28;0.40;;;16.80;68.60;;;;;;2137552;59;21536;-63
2023/11/05 02:31:53;;;;;;;3.72;0.85;;;16.80;69.30;;;;;;2132632;58;20998;-63
2023/11/05 02:34:20;;;;;;;2.60;0.65;;;16.80;69.20;;;;;;2130310;59;21085;-64
2023/11/05 02:36:47;;;;;;;2.85;0.52;;;16.80;69.20;;;;;;2129091;59;20962;-63
2023/11/05 02:39:15;;;;;;;4.87;0.88;;;16.90;69.10;;;;;;2129837;59;20970;-64
2023/11/05 02:41:44;;;;;;;2.70;0.45;;;16.90;69.00;;;;;;2136912;60;21790;-64
2023/11/05 02:44:11;;;;;;;2.30;0.50;;;16.90;68.80;;;;;;2118090;60;21505;-64
2023/11/05 02:46:37;;;;;;;2.47;0.50;;;16.90;69.30;;;;;;2133097;59;21829;-63
2023/11/05 02:49:03;;;;;;;3.58;0.60;;;16.90;69.00;;;;;;2128737;59;22079;-63
2023/11/05 02:51:33;;;;;;;3.53;0.70;;;16.90;69.00;;;;;;2130270;58;20961;-64
2023/11/05 02:53:59;;;;;;;2.28;0.40;;;16.90;68.50;;;;;;2337117;58;20982;-64
2023/11/05 02:56:25;;;;;;;5.57;0.62;;;16.90;68.80;;;;;;2130326;58;21697;-64
2023/11/05 02:58:52;;;;;;;1.45;0.40;;;16.90;68.80;;;;;;2129735;59;20973;-63
2023/11/05 03:01:24;;;;;;;4.87;0.62;;;16.90;68.80;;;;;;2130440;59;21005;-63
2023/11/05 03:03:54;;;;;;;1.85;0.47;;;16.90;68.00;;;;;;2129767;59;20977;-64
2023/11/05 03:06:20;;;;;;;2.65;0.45;;;16.90;68.70;;;;;;2331838;58;21014;-64
2023/11/05 03:08:46;;;;;;;2.78;0.70;;;16.90;68.70;;;;;;2331658;58;21499;-64
2023/11/05 03:11:12;;;;;;;2.25;0.45;;;16.90;68.70;;;;;;2331873;58;21014;-64
2023/11/05 03:13:39;;;;;;;3.55;0.95;;;16.90;68.70;;;;;;2332304;58;21038;-64
2023/11/05 03:16:08;;;;;;;2.62;0.62;;;16.90;68.60;;;;;;2129467;59;21050;-64
2023/11/05 03:18:34;;;;;;;3.12;0.55;;;16.90;68.70;;;;;;2333022;58;20958;-65
2023/11/05 03:21:01;;;;;;;3.20;0.70;;;16.90;68.50;;;;;;2135804;59;21893;-65
2023/11/05 03:23:27;;;;;;;3.62;0.60;;;16.90;68.60;;;;;;2334616;58;20982;-64
2023/11/05 03:25:55;;;;;;;2.08;0.70;;;16.90;68.50;;;;;;2330349;58;21009;-63
2023/11/05 03:28:21;;;;;;;3.45;0.70;;;16.90;68.50;;;;;;2136100;59;21010;-64
2023/11/05 03:30:48;;;;;;;3.25;0.70;;;16.90;68.50;;;;;;2337039;59;21118;-65
2023/11/05 03:33:14;;;;;;;4.12;1.10;;;16.90;68.60;;;;;;2331018;58;20998;-64
2023/11/05 03:35:42;;;;;;;4.07;1.05;;;16.90;68.50;;;;;;2129344;59;21061;-64
2023/11/05 03:38:08;;;;;;;3.25;0.65;;;16.80;68.20;;;;;;2330364;58;21035;-64
2023/11/05 03:40:34;;;;;;;3.65;0.50;;;16.80;68.20;;;;;;2130043;59;20972;-64
2023/11/05 03:43:01;;;;;;;5.10;1.00;;;16.80;68.10;;;;;;2330923;58;21038;-65
2023/11/05 03:45:27;;;;;;;4.03;0.68;;;16.80;68.00;;;;;;2129466;59;21017;-64
2023/11/05 03:47:56;;;;;;;4.93;1.10;;;16.70;67.90;;;;;;2331859;58;20961;-63
2023/11/05 03:50:23;;;;;;;3.83;0.90;;;16.70;67.90;;;;;;2129447;59;20954;-65
2023/11/05 03:52:50;;;;;;;4.97;1.23;;;16.70;68.00;;;;;;2130098;59;21514;-65
2023/11/05 03:55:16;;;;;;;4.37;0.80;;;16.60;68.00;;;;;;2330919;58;21053;-64
2023/11/05 03:57:42;;;;;;;4.97;0.90;;;16.60;68.10;;;;;;2129232;59;21016;-63
2023/11/05 04:00:10;;;;;;;2.15;0.50;;;16.60;68.20;;;;;;2129350;59;21479;-64
2023/11/05 04:02:37;;;;;;;2.75;0.70;;;16.50;68.20;;;;;;2129094;59;21030;-63
2023/11/05 04:05:03;;;;;;;3.70;0.50;;;16.60;68.50;;;;;;2129002;59;20977;-63
2023/11/05 04:07:30;;;;;;;1.92;0.55;;;16.50;68.50;;;;;;2129757;59;20985;-63
2023/11/05 04:09:56;;;;;;;2.53;0.60;;;16.50;68.40;;;;;;2129462;59;21030;-64
2023/11/05 04:12:22;;;;;;;3.35;0.70;;;16.50;68.60;;;;;;2129767;59;20994;-64
2023/11/05 04:14:49;;;;;;;2.75;0.50;;;16.50;68.60;;;;;;2130375;58;21518;-64
2023/11/05 04:17:15;;;;;;;2.17;0.60;;;16.40;68.60;;;;;;2129794;59;21042;-63
2023/11/05 04:19:42;;;;;;;3.00;0.52;;;16.40;68.40;;;;;;2331415;58;21521;-63
2023/11/05 04:22:08;;;;;;;2.58;0.50;;;16.40;68.30;;;;;;2331162;58;21066;-64
2023/11/05 04:24:37;;;;;;;2.67;0.60;;;16.40;68.50;;;;;;2129973;59;20994;-64
2023/11/05 04:27:03;;;;;;;3.05;0.50;;;16.40;68.60;;;;;;2129700;59;21002;-64
2023/11/05 04:29:29;;;;;;;3.65;0.60;;;16.40;68.70;;;;;;2331482;58;21438;-64
2023/11/05 04:31:56;;;;;;;2.75;0.45;;;16.40;68.70;;;;;;2130280;59;21026;-64
2023/11/05 04:34:27;;;;;;;5.95;0.57;;;16.40;68.70;;;;;;2331954;58;20969;-63
2023/11/05 04:36:54;;;;;;;2.45;0.50;;;16.40;68.60;;;;;;2336836;58;21021;-63
2023/11/05 04:39:21;;;;;;;1.75;0.35;;;16.40;68.80;;;;;;2332599;58;20966;-64
2023/11/05 04:41:48;;;;;;;4.45;0.55;;;16.40;68.90;;;;;;2129875;59;21753;-65
2023/11/05 04:44:14;;;;;;;3.50;0.50;;;16.40;68.90;;;;;;2332071;58;21009;-64
2023/11/05 04:46:42;;;;;;;2.60;0.60;;;16.40;68.90;;;;;;2136661;58;21130;-64
2023/11/05 04:49:08;;;;;;;1.12;0.30;;;16.40;69.00;;;;;;2130789;59;21078;-63
2023/11/05 04:51:34;;;;;;;1.55;0.40;;;16.40;69.00;;;;;;2138219;59;20989;-64
2023/11/05 04:54:01;;;;;;;2.08;0.40;;;16.40;69.00;;;;;;2331160;58;21022;-64
2023/11/05 04:56:27;;;;;;;4.60;0.40;;;16.40;69.00;;;;;;2331424;58;22449;-64
2023/11/05 04:58:53;;;;;;;1.90;0.47;;;16.30;68.60;;;;;;2130294;59;21526;-64
2023/11/05 05:01:20;;;;;;;0.82;0.30;;;16.30;68.50;;;;;;2331606;58;21062;-64
2023/11/05 05:03:46;;;;;;;2.85;0.60;;;16.30;68.60;;;;;;2331476;58;20950;-64
2023/11/05 05:06:13;;;;;;;3.33;0.52;;;16.30;68.50;;;;;;2141086;58;21081;-64
2023/11/05 05:08:39;;;;;;;1.62;0.30;;;16.30;69.20;;;;;;2138460;59;21111;-64
2023/11/05 05:11:06;;;;;;;2.40;0.40;;;16.30;68.60;;;;;;2133721;59;21070;-64
2023/11/05 05:13:32;;;;;;;1.92;0.40;;;16.30;68.60;;;;;;2132284;59;21942;-64
2023/11/05 05:15:59;;;;;;;1.87;0.60;;;16.30;68.60;;;;;;2129810;59;21045;-63
2023/11/05 05:18:27;;;;;;;0.88;0.30;;;16.30;68.70;;;;;;2331450;58;21053;-64
2023/11/05 05:20:54;;;;;;;1.35;0.40;;;16.30;68.70;;;;;;2331540;58;20961;-63
2023/11/05 05:23:20;;;;;;;1.65;0.98;;;16.30;68.90;;;;;;2130119;59;20946;-64
2023/11/05 05:25:47;;;;;;;1.50;0.30;;;16.30;68.60;;;;;;2331215;58;21022;-63
2023/11/05 05:28:14;;;;;;;1.98;0.47;;;16.30;68.80;;;;;;2135304;59;20997;-63
2023/11/05 05:30:40;;;;;;;1.67;0.50;;;16.30;68.90;;;;;;2130552;59;20981;-63
2023/11/05 05:33:06;;;;;;;0.98;0.40;;;16.30;69.00;;;;;;2129243;58;21535;-64
2023/11/05 05:35:33;;;;;;;1.23;0.37;;;16.30;69.10;;;;;;2330775;58;20950;-64
2023/11/05 05:37:59;;;;;;;1.83;0.40;;;16.30;68.90;;;;;;2128783;59;20993;-63
2023/11/05 05:40:27;;;;;;;1.70;0.40;;;16.30;69.10;;;;;;2137524;59;21001;-64
2023/11/05 05:42:53;;;;;;;2.62;0.40;;;16.20;69.00;;;;;;2136743;59;21707;-64
2023/11/05 05:45:19;;;;;;;1.08;0.30;;;16.20;68.90;;;;;;2330454;58;21424;-64
2023/11/05 05:47:46;;;;;;;1.75;0.50;;;16.20;68.90;;;;;;2331827;58;20966;-64
2023/11/05 05:50:12;;;;;;;1.83;0.30;;;16.20;68.90;;;;;;2128349;59;21652;-63
2023/11/05 05:52:38;;;;;;;2.17;0.88;;;16.20;68.90;;;;;;2331237;58;21030;-64
2023/11/05 05:55:08;;;;;;;1.27;0.60;;;16.20;69.00;;;;;;2129798;59;21053;-64
2023/11/05 05:57:35;;;;;;;3.25;0.50;;;16.20;69.00;;;;;;2129743;59;21006;-63
2023/11/05 06:00:04;;;;;;;1.40;0.37;;;16.20;68.90;;;;;;2129342;59;21042;-64
2023/11/05 06:02:31;;;;;;;1.62;0.37;;;16.20;68.70;;;;;;2129961;59;21337;-63
2023/11/05 06:04:59;;;;;;;1.95;0.47;;;16.20;68.60;;;;;;2128910;59;22397;-63
2023/11/05 06:07:31;;;;;;;0.88;0.32;;;16.20;68.70;;;;;;2129245;59;21305;-63
2023/11/05 06:09:58;;;;;;;1.40;0.20;;;16.20;68.90;;;;;;2129854;59;20981;-63
2023/11/05 06:12:26;;;;;;;5.82;0.80;;;16.20;68.90;;;;;;2129347;59;21042;-64
2023/11/05 06:14:52;;;;;;;0.57;0.20;;;16.10;68.60;;;;;;2129842;59;21022;-63
2023/11/05 06:17:20;;;;;;;1.05;0.25;;;16.20;68.90;;;;;;2129668;59;20997;-64
2023/11/05 06:19:48;;;;;;;1.65;0.28;;;16.10;68.90;;;;;;2129792;58;21001;-63
2023/11/05 06:22:15;;;;;;;1.65;0.40;;;16.10;68.70;;;;;;2329995;58;20978;-64
2023/11/05 06:24:41;;;;;;;1.55;0.30;;;16.10;68.90;;;;;;2137415;59;21397;-63
2023/11/05 06:27:10;;;;;;;1.10;0.40;;;16.10;68.70;;;;;;2332797;58;20965;-63
2023/11/05 06:29:36;;;;;;;1.12;0.30;;;16.10;68.50;;;;;;2129763;59;21009;-64
2023/11/05 06:32:03;;;;;;;1.90;0.30;;;16.10;68.70;;;;;;2129792;59;20993;-63
2023/11/05 06:34:29;;;;;;;1.12;0.45;;;16.10;68.90;;;;;;2129419;59;20974;-63
2023/11/05 06:37:02;;;;;;;0.70;0.28;;;16.10;68.90;;;;;;2331056;58;20986;-64
2023/11/05 06:39:28;;;;;;;1.40;0.30;;;16.10;68.60;;;;;;2331398;58;20998;-64
2023/11/05 06:41:58;;;;;;;1.30;0.30;;;16.10;68.80;;;;;;2129928;58;20986;-63
2023/11/05 06:44:24;;;;;;;0.95;0.20;;;16.10;68.70;;;;;;2330838;58;20997;-63
2023/11/05 06:46:51;;;;;;;1.48;0.35;;;16.10;68.90;;;;;;2334117;58;21063;-64
2023/11/05 06:49:19;;;;;;;1.42;0.30;;;16.00;68.90;;;;;;2338128;58;21110;-63
2023/11/05 06:51:45;;;;;;;0.98;0.28;;;16.00;69.00;;;;;;2139067;59;20981;-64
2023/11/05 06:54:14;;;;;;;2.72;0.50;;;16.10;69.20;;;;;;2331195;58;20950;-64
2023/11/05 06:56:40;;;;;;;0.85;0.30;;;16.00;69.20;;;;;;2129958;59;21492;-63
2023/11/05 06:59:10;;;;;;;1.35;0.22;;;16.10;69.40;;;;;;2331406;58;21026;-63
2023/11/05 07:01:39;;;;;;;1.12;0.20;;;16.10;69.40;;;;;;2330032;58;21863;-64
2023/11/05 07:04:06;;;;;;;1.48;0.30;;;16.10;70.10;;;;;;2129364;59;21871;-63
2023/11/05 07:06:32;;;;;;;2.03;0.50;;;16.10;69.40;;;;;;2331340;58;21420;-63
2023/11/05 07:08:58;;;;;;;3.25;0.40;;;16.10;69.40;;;;;;2331326;58;20986;-63
2023/11/05 07:11:24;;;;;;;1.48;0.40;;;16.10;69.50;;;;;;2331122;58;21799;-63
2023/11/05 07:13:52;;;;;;;0.45;0.20;;;16.10;69.50;;;;;;2129492;59;21042;-64
2023/11/05 07:16:18;;;;;;;0.98;0.50;;;16.00;69.50;;;;;;2331389;58;20989;-63
2023/11/05 07:18:46;;;;;;;0.37;0.10;;;16.00;69.40;;;;;;2130070;59;20942;-64
2023/11/05 07:21:14;;;;;;;0.95;0.30;;;16.00;69.40;;;;;;2129539;59;21026;-63
2023/11/05 07:23:43;;;;;;;0.60;0.25;;;16.10;69.50;;;;;;2130550;59;20978;-63
2023/11/05 07:26:10;;;;;;;2.53;0.30;;;16.10;69.40;;;;;;2129375;59;21030;-64
2023/11/05 07:28:37;;;;;;;1.12;0.13;;;16.10;69.40;;;;;;2130687;59;20962;-63
2023/11/05 07:31:03;;;;;;;0.73;0.30;;;16.10;69.40;;;;;;2331365;58;21507;-64
2023/11/05 07:33:30;;;;;;;0.95;0.20;;;16.00;69.40;;;;;;2331651;58;20982;-64
2023/11/05 07:35:58;;;;;;;1.40;0.22;;;16.00;69.40;;;;;;2129251;59;20977;-63
2023/11/05 07:38:26;;;;;;;0.35;0.13;;;16.00;69.40;;;;;;2331292;58;20994;-64
2023/11/05 07:40:52;;;;;;;2.65;0.40;;;16.10;69.40;;;;;;2129283;59;22032;-64
2023/11/05 07:43:19;;;;;;;0.95;0.20;;;16.10;69.40;;;;;;2331057;58;21833;-64
2023/11/05 07:45:47;;;;;;;1.50;0.28;;;16.00;69.40;;;;;;2129260;59;20982;-64
2023/11/05 07:48:13;;;;;;;0.55;0.17;;;16.00;69.40;;;;;;2129657;59;21522;-63
2023/11/05 07:50:39;;;;;;;1.77;0.28;;;16.00;70.10;;;;;;2332254;58;20985;-64
2023/11/05 07:53:06;;;;;;;1.45;0.35;;;16.00;69.60;;;;;;2129908;59;21039;-63
2023/11/05 07:55:33;;;;;;;1.05;0.30;;;16.00;69.60;;;;;;2129716;58;21711;-63
2023/11/05 07:57:59;;;;;;;1.08;0.20;;;16.00;69.60;;;;;;2331692;58;21049;-62
2023/11/05 08:00:26;;;;;;;0.73;0.28;;;16.10;69.70;;;;;;2331309;58;21071;-64
2023/11/05 08:02:53;;;;;;;0.98;0.30;;;16.00;69.60;;;;;;2332120;58;21034;-64
2023/11/05 08:05:19;;;;;;;2.00;0.20;;;16.00;69.60;;;;;;2129862;59;20978;-64
2023/11/05 08:07:49;;;;;;;1.20;0.30;;;16.00;69.50;;;;;;2128855;59;20989;-64
2023/11/05 08:10:17;;;;;;;3.12;0.40;;;16.00;69.50;;;;;;2129562;59;21412;-64
2023/11/05 08:12:44;;;;;;;1.25;0.40;;;16.10;69.60;;;;;;2331533;58;20974;-63
2023/11/05 08:15:11;;;;;;;0.43;0.20;;;16.00;69.50;;;;;;2130121;59;20954;-63
2023/11/05 08:17:39;;;;;;;0.40;0.20;;;16.00;69.50;;;;;;2130147;59;21018;-64
2023/11/05 08:20:06;;;;;;;2.10;0.45;;;16.00;69.60;;;;;;2332015;58;21053;-64
2023/11/05 08:22:33;;;;;;;1.35;0.30;;;16.00;69.50;;;;;;2130114;59;21458;-64
2023/11/05 08:25:00;;;;;;;0.43;0.20;;;16.00;69.60;;;;;;2332114;58;20974;-63
2023/11/05 08:27:26;;;;;;;1.30;0.20;;;16.00;69.60;;;;;;2129609;59;20978;-63
2023/11/05 08:29:52;;;;;;;1.17;0.22;;;16.00;69.60;;;;;;2332235;58;21128;-63
2023/11/05 08:32:22;;;;;;;1.08;0.30;;;16.00;69.60;;;;;;2331722;58;21546;-64
2023/11/05 08:34:48;;;;;;;0.45;0.10;;;16.00;69.60;;;;;;2130154;59;20981;-64
2023/11/05 08:37:14;;;;;;;0.60;0.20;;;16.00;69.70;;;;;;2324883;58;21089;-64
2023/11/05 08:39:41;;;;;;;1.70;0.10;;;16.00;69.70;;;;;;2128824;58;21021;-64
2023/11/05 08:42:07;;;;;;;0.32;0.13;;;16.00;69.60;;;;;;2130430;59;20969;-63
2023/11/05 08:44:33;;;;;;;0.80;0.13;;;16.00;69.50;;;;;;2129898;58;20953;-64
2023/11/05 08:47:00;;;;;;;0.50;0.20;;;16.10;69.60;;;;;;2130529;59;21490;-64
2023/11/05 08:49:27;;;;;;;0.30;0.20;;;16.10;69.70;;;;;;2331457;58;21437;-64
2023/11/05 08:51:57;;;;;;;1.27;0.30;;;16.00;69.50;;;;;;2130095;58;21523;-64
2023/11/05 08:54:24;;;;;;;0.90;0.20;;;16.10;69.60;;;;;;2331518;58;20998;-63
2023/11/05 08:56:50;;;;;;;1.02;0.30;;;16.10;69.60;;;;;;2335426;58;21034;-63
2023/11/05 08:59:17;;;;;;;2.60;0.40;;;16.00;69.40;;;;;;2131460;59;20994;-64
2023/11/05 09:01:43;;;;;;;1.45;0.30;;;16.00;69.40;;;;;;2130116;58;20962;-63
2023/11/05 09:04:09;;;;;;;0.70;0.25;;;16.10;69.60;;;;;;2130035;59;20989;-63
2023/11/05 09:06:36;;;;;;;0.60;0.30;;;16.00;69.50;;;;;;2136425;59;21029;-63
2023/11/05 09:09:06;;;;;;;1.52;0.30;;;16.10;69.80;;;;;;2133345;58;21306;-64
2023/11/05 09:11:33;;;;;;;3.17;0.30;;;16.10;69.60;;;;;;2331789;58;22148;-63
2023/11/05 09:13:59;;;;;;;1.23;0.40;;;16.10;69.90;;;;;;2135407;58;21081;-63
2023/11/05 09:16:25;;;;;;;2.40;0.50;;;16.10;69.90;;;;;;2132167;58;21095;-64
2023/11/05 09:18:55;;;;;;;1.30;0.40;;;16.10;69.90;;;;;;2130351;59;21459;-64
2023/11/05 09:21:21;;;;;;;1.62;0.40;;;16.10;69.80;;;;;;2331613;58;20977;-64
2023/11/05 09:23:49;;;;;;;2.80;0.80;;;16.10;69.90;;;;;;2130118;59;21042;-64
2023/11/05 09:26:21;;;;;;;1.43;0.30;;;16.10;69.90;;;;;;2331710;58;21047;-63
2023/11/05 09:28:49;;;;;;;3.20;0.40;;;16.10;69.90;;;;;;2130407;58;21065;-63
2023/11/05 09:31:16;;;;;;;1.75;0.40;;;16.10;69.80;;;;;;2129638;59;21495;-64
2023/11/05 09:33:42;;;;;;;0.98;0.30;;;16.10;70.00;;;;;;2129485;58;21058;-64
2023/11/05 09:36:09;;;;;;;2.30;0.40;;;16.10;70.10;;;;;;2331780;58;20950;-64
2023/11/05 09:38:35;;;;;;;1.05;0.30;;;16.10;70.10;;;;;;2129855;59;21010;-64
2023/11/05 09:41:01;;;;;;;1.27;0.30;;;16.00;70.00;;;;;;2130421;58;20993;-63
2023/11/05 09:43:28;;;;;;;1.42;0.40;;;16.10;70.00;;;;;;2130213;59;21034;-64
2023/11/05 09:45:54;;;;;;;2.45;0.30;;;16.00;69.90;;;;;;2331454;58;20980;-64
2023/11/05 09:48:23;;;;;;;1.23;0.30;;;16.00;70.00;;;;;;2331615;58;21010;-64
2023/11/05 09:50:50;;;;;;;1.05;0.30;;;16.00;70.10;;;;;;2129918;58;21271;-64
2023/11/05 09:53:16;;;;;;;2.17;0.65;;;16.00;70.20;;;;;;2331653;58;20950;-63
2023/11/05 09:55:44;;;;;;;1.45;0.40;;;16.00;70.30;;;;;;2331389;58;20998;-65
2023/11/05 09:58:12;;;;;;;0.77;0.30;;;16.00;70.30;;;;;;2130325;58;21515;-63
2023/11/05 10:00:38;;;;;;;0.65;0.30;;;16.10;70.40;;;;;;2129238;58;21086;-64
2023/11/05 10:03:09;;;;;;;1.10;0.35;;;16.10;70.40;;;;;;2332004;58;20978;-63
2023/11/05 10:05:37;;;;;;;1.45;0.40;;;16.10;70.30;;;;;;2331812;58;20996;-64
2023/11/05 10:08:07;;;;;;;1.73;0.35;;;16.10;70.70;;;;;;2135538;59;21547;-64
2023/11/05 10:10:34;;;;;;;1.98;0.47;;;16.10;70.30;;;;;;2131211;59;20994;-64
2023/11/05 10:13:07;;;;;;;1.55;0.30;;;16.10;70.50;;;;;;2333194;58;21096;-64
2023/11/05 10:15:33;;;;;;;;;;;16.10;70.50;;;;;;2337670;58;21483;-64
2023/11/05 10:17:59;;;;;;;1.08;0.40;;;16.20;69.30;;;;;;2325023;59;20103;-64
2023/11/05 10:20:30;;;;;;;1.25;0.20;;;16.20;70.90;;;;;;2121784;58;20996;-64
2023/11/05 10:23:06;;;;;;;1.23;0.40;;;16.20;70.90;;;;;;2130522;58;21046;-63
2023/11/05 10:25:34;;;;;;;1.23;0.40;;;16.20;70.30;;;;;;2129455;58;21050;-64
2023/11/05 10:28:00;;;;;;;1.52;0.43;;;16.20;71.00;;;;;;2129248;59;20974;-65
2023/11/05 10:30:30;;;;;;;0.98;0.35;;;16.20;71.00;;;;;;2128363;58;21035;-64
2023/11/05 10:32:56;;;;;;;1.48;0.50;;;16.20;71.10;;;;;;2328132;58;21047;-64
2023/11/05 10:35:27;;;;;;;1.65;0.55;;;16.20;71.30;;;;;;2128939;59;21006;-64
2023/11/05 10:37:55;;;;;;;3.25;2.00;;;16.30;71.30;;;;;;2127423;59;21043;-64
2023/11/05 10:40:23;;;;;;;2.85;1.37;;;16.30;71.50;;;;;;2131670;58;20980;-65
2023/11/05 10:42:50;;;;;;;1.37;0.70;;;16.30;71.40;;;;;;2333250;58;21014;-64
2023/11/05 10:45:19;;;;;;;2.72;0.70;;;16.30;71.60;;;;;;2334679;58;21360;-65
2023/11/05 10:47:51;;;;;;;0.98;0.40;;;16.40;71.60;;;;;;2130805;59;21435;-64
2023/11/05 10:50:24;;;;;;;;;;;16.40;71.90;;;;;;2139179;59;21077;-64
2023/11/05 10:52:56;;;;;;;0.65;0.30;;;16.50;70.60;;;;;;2130027;59;20070;-65
2023/11/05 10:55:32;;;;;;;3.97;0.70;;;16.50;71.90;;;;;;2129334;59;21100;-63
2023/11/05 10:57:59;;;;;;;2.28;0.30;;;16.60;71.80;;;;;;2129436;59;21022;-63
2023/11/05 11:00:48;;;;;;;1.40;0.30;;;16.60;72.30;;;;;;2129343;59;21411;-64
2023/11/05 11:03:15;;;;;;;2.47;0.30;;;16.70;71.00;;;;;;2330919;58;21053;-64
2023/11/05 11:05:53;;;;;;;0.80;0.20;;;16.80;72.20;;;;;;2129216;59;21002;-63
2023/11/05 11:08:23;;;;;;;0.55;0.20;;;16.80;71.30;;;;;;2335931;59;21042;-63
2023/11/05 11:10:50;;;;;;;1.00;0.37;;;16.90;71.70;;;;;;2331221;58;21118;-64
2023/11/05 11:13:28;;;;;;;0.43;0.20;;;16.90;71.80;;;;;;2130145;59;21877;-64
2023/11/05 11:15:56;;;;;;;1.30;0.20;;;17.00;70.80;;;;;;2130533;59;21785;-63
2023/11/05 11:18:26;;;;;;;0.57;0.40;;;17.00;71.50;;;;;;2331788;58;21729;-64
2023/11/05 11:20:56;;;;;;;0.65;0.20;;;17.10;71.00;;;;;;2129892;59;20998;-64
2023/11/05 11:23:23;;;;;;;0.95;0.20;;;17.10;71.30;;;;;;2331225;58;21792;-63
2023/11/05 11:26:05;;;;;;;0.75;0.20;;;17.10;71.30;;;;;;2129356;58;20994;-64
2023/11/05 11:28:38;;;;;;;1.42;0.43;;;17.20;70.50;;;;;;2331488;58;21098;-64
2023/11/05 11:31:05;;;;;;;1.55;0.50;;;17.20;71.30;;;;;;2331419;58;21023;-64
2023/11/05 11:33:31;;;;;;;1.23;0.30;;;17.20;71.30;;;;;;2129606;59;20973;-65
2023/11/05 11:36:05;;;;;;;1.37;0.35;;;17.20;70.70;;;;;;2333531;58;21045;-65
2023/11/05 11:38:31;;;;;;;0.90;0.30;;;17.20;70.40;;;;;;2131599;59;21125;-64
2023/11/05 11:40:58;;;;;;;0.62;0.20;;;17.30;70.60;;;;;;2130186;59;21144;-64
2023/11/05 11:43:28;;;;;;;0.88;0.30;;;17.30;70.50;;;;;;2129318;59;20974;-65
2023/11/05 11:45:55;;;;;;;1.10;0.43;;;17.30;70.20;;;;;;2129375;59;20997;-64
2023/11/05 11:48:25;;;;;;;0.57;0.28;;;17.30;70.30;;;;;;2330230;58;20966;-64
2023/11/05 11:51:06;;;;;;;0.55;0.30;;;17.30;70.30;;;;;;2330598;58;21942;-64
2023/11/05 11:53:39;;;;;;;0.60;0.20;;;17.30;69.90;;;;;;2132644;59;21037;-64
2023/11/05 11:56:08;;;;;;;0.80;0.30;;;17.10;70.10;;;;;;2334293;58;21741;-64
2023/11/05 11:58:38;;;;;;;0.80;0.30;;;17.20;70.20;;;;;;2330815;58;21404;-63
2023/11/05 12:01:13;;;;;;;0.30;0.20;;;17.20;70.10;;;;;;2129164;59;20958;-64
2023/11/05 12:03:39;;;;;;;0.50;0.20;;;17.20;69.90;;;;;;2330747;58;21614;-63
2023/11/05 12:06:06;;;;;;;0.60;0.15;;;17.20;70.00;;;;;;2331113;58;21074;-62
2023/11/05 12:08:39;;;;;;;0.20;0.10;;;17.20;70.10;;;;;;2330980;58;21073;-64
2023/11/05 12:11:08;;;;;;;0.60;0.20;;;17.20;69.70;;;;;;2129498;59;21117;-64
2023/11/05 12:13:35;;;;;;;0.40;0.20;;;17.20;70.20;;;;;;2135245;59;21163;-64
2023/11/05 12:16:06;;;;;;;0.90;0.20;;;17.20;70.50;;;;;;2128767;59;21020;-63
2023/11/05 12:18:34;;;;;;;0.68;0.20;;;17.20;70.00;;;;;;2128173;58;21101;-65
2023/11/05 12:21:02;;;;;;;0.77;0.20;;;17.20;70.20;;;;;;2129350;59;20977;-63
2023/11/05 12:23:28;;;;;;;0.50;0.15;;;17.20;70.10;;;;;;2129326;58;20977;-63
2023/11/05 12:26:01;;;;;;;0.70;0.20;;;17.20;70.10;;;;;;2129202;58;21050;-64
2023/11/05 12:28:28;;;;;;;0.65;0.10;;;17.30;69.60;;;;;;2128608;59;20969;-65
2023/11/05 12:31:06;;;;;;;0.88;0.32;;;17.30;70.10;;;;;;2331270;58;21002;-64
2023/11/05 12:33:42;;;;;;;0.55;0.20;;;17.30;69.50;;;;;;2128928;58;21041;-65
2023/11/05 12:36:11;;;;;;;1.17;0.35;;;17.30;69.40;;;;;;2128758;59;21807;-64
2023/11/05 12:38:37;;;;;;;0.50;0.20;;;17.40;70.40;;;;;;2330946;58;21149;-63
2023/11/05 12:41:04;;;;;;;0.77;0.20;;;17.30;70.30;;;;;;2129664;59;20958;-64
2023/11/05 12:43:30;;;;;;;0.20;0.10;;;17.40;70.30;;;;;;2129837;58;21065;-64
2023/11/05 12:45:58;;;;;;;0.50;0.20;;;17.40;70.40;;;;;;2128968;58;21034;-63
2023/11/05 12:48:28;;;;;;;2.53;0.35;;;17.40;70.40;;;;;;2118295;60;20990;-63
2023/11/05 12:50:56;;;;;;;0.47;0.28;;;17.40;70.10;;;;;;2129323;59;21066;-64